Stations météo

réclame
Mon MeteoGroup
Tarfala, Suède (2029): Température de l'air & dewpoint: 17.09.2019 13:00:00 - 23.09.2019 13:00:00 (CEST)Tarfala, Suède (2029): Vitesse du vent & gusts: 17.09.2019 13:00:00 - 23.09.2019 13:00:00 (CEST)Tarfala, Suède (2029): Direction du vent: 17.09.2019 13:00:00 - 23.09.2019 13:00:00 (CEST)
Date & Time tt [°C] td [°C] ff [km/h] ff [knt] fx [km/h] fx [knt] dd
23.09.2019 13:00:00 - - - - - - -
23.09.2019 12:00:00 -1,9 -10,2 3 1 5 3 N
23.09.2019 11:00:00 -2,9 -12,4 3 2 8 4 N
23.09.2019 10:00:00 -3,6 -10,9 3 1 7 4 NNE
23.09.2019 09:00:00 -5,1 -12,3 4 2 10 6 NNW
23.09.2019 08:00:00 -5,9 -12,0 3 2 9 5 NNW
23.09.2019 07:00:00 -5,3 -10,5 3 2 7 4 N
23.09.2019 06:00:00 -5,6 -9,8 5 3 9 5 NNW
23.09.2019 05:00:00 -5,1 -9,7 5 3 8 4 NNW
23.09.2019 04:00:00 -4,8 -9,4 3 2 9 5 NNW
23.09.2019 03:00:00 -4,7 -9,2 3 2 8 4 NNE
23.09.2019 02:00:00 -5,0 -8,9 7 4 10 5 NNW
23.09.2019 01:00:00 -5,0 -8,6 5 3 11 6 N
23.09.2019 00:00:00 -5,1 -9,2 8 5 14 7 NW
22.09.2019 23:00:00 -3,9 -8,4 5 3 11 6 NNE
22.09.2019 22:00:00 -4,8 -8,5 4 2 12 6 NNW
22.09.2019 21:00:00 -4,1 -8,6 4 2 11 6 NNE
22.09.2019 20:00:00 -4,8 -8,5 5 3 14 8 NNW
22.09.2019 19:00:00 -4,5 -9,0 5 3 11 6 NNW
22.09.2019 18:00:00 -3,1 -8,4 7 4 10 5 NNW
22.09.2019 17:00:00 -3,3 -8,5 3 2 8 4 NNW
22.09.2019 16:00:00 -1,9 -8,6 4 2 8 5 NW
22.09.2019 15:00:00 -0,2 -7,7 4 2 9 5 WNW
22.09.2019 14:00:00 0,6 -8,2 5 3 9 5 W
22.09.2019 13:00:00 -0,7 -8,6 6 3 7 4 NW
22.09.2019 12:00:00 -1,7 -10,0 3 2 7 4 NNE
22.09.2019 11:00:00 -2,2 -9,8 3 1 12 6 NNW
22.09.2019 10:00:00 -3,8 -10,2 4 2 11 6 NNE
22.09.2019 09:00:00 -3,7 -10,5 4 2 19 11 ESE
22.09.2019 08:00:00 -3,7 -10,8 4 2 35 19 WNW
22.09.2019 07:00:00 -3,5 -11,0 5 3 30 16 SE
22.09.2019 06:00:00 -5,9 -11,2 6 3 11 6 S
22.09.2019 05:00:00 -5,9 -10,9 6 3 11 6 WNW
22.09.2019 04:00:00 -4,4 -9,6 9 5 31 17 SSE
22.09.2019 03:00:00 -3,7 -10,5 18 10 39 21 NNW
22.09.2019 02:00:00 -3,9 -9,7 29 16 41 22 N
22.09.2019 01:00:00 -3,7 -9,7 29 16 42 23 NNW
22.09.2019 00:00:00 -2,2 -10,9 20 11 39 21 NW
21.09.2019 23:00:00 -2,7 -10,0 13 7 44 24 NNW
21.09.2019 22:00:00 -2,5 -10,3 21 11 57 31 WNW
21.09.2019 21:00:00 -2,0 -10,1 32 17 55 30 WNW
21.09.2019 20:00:00 -2,6 -9,7 11 6 32 17 NW
21.09.2019 19:00:00 -2,5 -7,8 15 8 57 31 NNW
21.09.2019 18:00:00 -2,4 -7,9 27 15 62 33 NNW
21.09.2019 17:00:00 -1,7 -8,0 26 14 55 30 WNW
21.09.2019 16:00:00 -1,6 -7,5 29 16 51 27 NW
21.09.2019 15:00:00 -1,3 -7,9 30 16 46 25 NW
21.09.2019 14:00:00 -1,3 -8,1 31 17 50 27 NW
21.09.2019 13:00:00 -1,3 -9,2 31 17 53 28 NW
21.09.2019 12:00:00 -1,3 -7,9 31 17 55 30 WNW
21.09.2019 11:00:00 -1,5 -8,0 32 17 57 31 NW
21.09.2019 10:00:00 -1,7 -7,6 32 17 46 25 NW
21.09.2019 09:00:00 -1,6 -7,9 28 15 49 26 NW
21.09.2019 08:00:00 -1,7 -8,4 18 10 39 21 WNW
21.09.2019 07:00:00 -4,0 -9,2 8 5 21 12 NW
21.09.2019 06:00:00 -3,8 -9,4 5 3 10 5 E
21.09.2019 05:00:00 -4,2 -9,2 3 2 7 4 ESE
21.09.2019 04:00:00 -4,0 -8,7 4 2 9 5 N
21.09.2019 03:00:00 -4,8 -9,2 5 3 8 4 NNW
21.09.2019 02:00:00 -4,2 -7,5 3 1 6 3 NNW
21.09.2019 01:00:00 -3,9 -6,7 4 2 8 4 N
21.09.2019 00:00:00 -4,2 -6,3 5 3 8 4 SSE
20.09.2019 23:00:00 -3,1 -6,9 5 3 7 4 N
20.09.2019 22:00:00 -3,4 -7,2 5 3 8 4 NNW
20.09.2019 21:00:00 -3,4 -7,4 0 0 5 3 N
20.09.2019 20:00:00 -2,9 -7,8 4 2 8 4 N
20.09.2019 19:00:00 -3,7 -7,8 4 2 11 6 NNW
20.09.2019 18:00:00 -4,2 -8,3 6 3 14 7 NNW
20.09.2019 17:00:00 -3,5 -7,8 7 4 12 6 NW
20.09.2019 16:00:00 -1,2 -6,5 4 2 7 4 WNW
20.09.2019 15:00:00 -1,4 -6,5 4 2 9 5 N
20.09.2019 14:00:00 -0,1 -6,9 4 2 5 3 NW
20.09.2019 13:00:00 0,2 -7,1 2 1 7 4 W
20.09.2019 12:00:00 -1,4 -8,2 5 3 14 8 ESE
20.09.2019 11:00:00 -1,5 -8,5 10 5 27 15 ESE
20.09.2019 10:00:00 -1,2 -10,0 16 9 47 26 NW
20.09.2019 09:00:00 -1,9 -8,4 34 18 50 27 NW
20.09.2019 08:00:00 -2,5 -8,2 20 11 45 24 NW
20.09.2019 07:00:00 -2,6 -8,9 19 11 46 25 NW
20.09.2019 06:00:00 -2,3 -8,8 29 16 47 25 NW
20.09.2019 05:00:00 -2,5 -8,2 26 14 45 24 NW
20.09.2019 04:00:00 -2,5 -8,6 28 15 45 24 NW
20.09.2019 03:00:00 -2,9 -8,6 28 15 47 26 NW
20.09.2019 02:00:00 -2,8 -9,1 24 13 42 23 WNW
20.09.2019 01:00:00 -3,0 -8,9 24 13 41 22 WNW
20.09.2019 00:00:00 -2,4 -8,9 22 12 56 31 NW
19.09.2019 23:00:00 -2,3 -9,0 32 17 64 35 NW
19.09.2019 22:00:00 -1,9 -8,2 29 15 58 32 WNW
19.09.2019 21:00:00 -2,0 -7,5 27 14 55 30 NW
19.09.2019 20:00:00 -1,8 -7,7 32 17 64 35 WNW
19.09.2019 19:00:00 -2,0 -7,1 31 17 56 30 NW
19.09.2019 18:00:00 -2,0 -6,9 26 14 61 33 NW
19.09.2019 17:00:00 -1,9 -6,6 34 18 73 40 NW
19.09.2019 16:00:00 -2,0 -6,6 44 24 76 41 NW
19.09.2019 15:00:00 -1,9 -6,6 50 27 93 50 NW
19.09.2019 14:00:00 -2,1 -6,6 51 27 84 46 NW
19.09.2019 13:00:00 -2,3 -6,1 48 26 92 50 NW
19.09.2019 12:00:00 -2,4 -7,9 27 15 63 34 WNW
19.09.2019 11:00:00 -2,7 -7,4 37 20 74 40 NW
19.09.2019 10:00:00 -2,6 -7,3 38 20 74 40 WNW
19.09.2019 09:00:00 -2,9 -7,8 28 15 72 39 NW
19.09.2019 08:00:00 -3,0 -7,9 33 18 61 33 NW
19.09.2019 07:00:00 -3,0 -8,7 32 18 55 30 NW
19.09.2019 06:00:00 -3,5 -7,6 18 10 57 31 WNW
19.09.2019 05:00:00 -3,6 -7,7 42 23 59 32 NW
19.09.2019 04:00:00 -3,0 -9,1 27 15 56 31 WNW
19.09.2019 03:00:00 -3,0 -8,3 32 17 49 26 NW
19.09.2019 02:00:00 -2,9 -8,2 24 13 57 31 NW
19.09.2019 01:00:00 -2,6 -9,3 34 18 64 35 WNW
19.09.2019 00:00:00 -2,5 -6,3 35 19 48 26 NW
18.09.2019 23:00:00 -2,4 -7,3 19 10 38 21 WNW
18.09.2019 22:00:00 -3,9 -7,5 3 2 14 8 N
18.09.2019 21:00:00 -2,7 -8,2 7 4 38 21 W
18.09.2019 20:00:00 -2,2 -8,5 16 9 31 17 WNW
18.09.2019 19:00:00 -2,5 -8,0 11 6 41 22 NNW
18.09.2019 18:00:00 -2,0 -6,6 23 12 33 18 N
18.09.2019 17:00:00 -1,7 -4,4 8 5 36 19 NW
18.09.2019 16:00:00 -1,1 -5,7 20 11 34 19 N
18.09.2019 15:00:00 -0,9 -3,6 12 6 27 14 NNW
18.09.2019 14:00:00 -0,8 -1,8 6 3 13 7 SSE
18.09.2019 13:00:00 -0,5 -1,6 4 2 8 4 SSE
18.09.2019 12:00:00 -0,7 -1,4 4 2 6 3 S
18.09.2019 11:00:00 -0,7 -1,3 3 1 5 3 SE
18.09.2019 10:00:00 -1,4 -1,8 2 1 9 5 WSW
18.09.2019 09:00:00 -1,6 -1,9 5 3 8 4 SSE
18.09.2019 08:00:00 -2,1 -2,4 0 0 4 2 N
18.09.2019 07:00:00 -2,2 -2,5 3 2 4 2 SSE
18.09.2019 06:00:00 -2,0 -2,1 0 0 6 4 N
18.09.2019 05:00:00 -1,8 -1,9 4 2 4 2 SSE
18.09.2019 04:00:00 -1,7 -1,8 2 1 4 2 SE
18.09.2019 03:00:00 -1,7 -1,8 2 1 4 2 SSE
18.09.2019 02:00:00 -1,5 -1,6 3 2 5 3 SSE
18.09.2019 01:00:00 -1,4 -1,5 3 1 4 2 SE
18.09.2019 00:00:00 -1,4 -1,5 0 0 3 1 N
17.09.2019 23:00:00 -1,2 -1,3 3 1 6 3 SE
17.09.2019 22:00:00 -0,9 -1,0 5 3 8 4 SSE
17.09.2019 21:00:00 -0,8 -0,9 7 4 11 6 SE
17.09.2019 20:00:00 -0,5 -0,6 8 5 10 5 SSE
17.09.2019 19:00:00 -0,4 -0,7 4 2 9 5 SE
17.09.2019 18:00:00 -0,4 -1,0 6 3 8 4 SE
17.09.2019 17:00:00 0,3 -1,8 0 0 4 2 N
17.09.2019 16:00:00 0,3 -1,8 0 0 6 3 N
17.09.2019 15:00:00 0,6 -2,6 3 2 5 3 NNE
17.09.2019 14:00:00 0,4 -2,3 3 1 6 4 NNE
17.09.2019 13:00:00 0,3 -1,9 4 2 11 6 SE

tt = Température de l'air
td = dewpoint
ff = Vitesse du vent
fx = gusts
dd = Direction du vent

stations d'obs. à proximité